Nearby METAR Reports

 

KRNT - Renton, Washington, USA
Distance from station: WNW 10mi, 17km
Updated: Thu, 24-May-2018 3:53pm PDT
Clear
Clear
 Wind from NW
Wind: NW 7 mph , 11 km/h
Temperature: 70°F , 21°C
Dew Point: 52°F , 11°C
Humidity: 53%
Barometer: 30.05 inHg , 1017.6 hPa
Clouds: Clear
Visibility: 10 miles , 16 km
2018/05/24 22:53 KRNT 242253Z 32006KT 10SM CLR 21/11 A3005 RMK AO2 SLP179 T02060111
KSEA - Seattle/Metro, Washington, USA
Distance from station: W 14mi, 23km
Updated: Thu, 24-May-2018 3:53pm PDT
Partly cloudy
Partly cloudy
 Wind from varies
Wind: varies 5 mph , 7 km/h
Temperature: 68°F , 20°C
Dew Point: 52°F , 11°C
Humidity: 56%
Barometer: 30.06 inHg , 1017.9 hPa
Clouds: Partly cloudy
Visibility: 10 miles , 16 km
Cloud details: Partly cloudy 2400 ft
Partly cloudy 25000 ft
2018/05/24 22:53 KSEA 242253Z VRB04KT 10SM SCT024 SCT250 20/11 A3006 RMK AO2 SLP185 T02000111
 
KBFI - Seattle/Boeing, Washington, USA
Distance from station: WNW 16mi, 26km
Updated: Thu, 24-May-2018 3:53pm PDT
Partly cloudy
Partly cloudy
 Wind from calm
Wind: Calm
Temperature: 68°F , 20°C
Dew Point: 50°F , 10°C
Humidity: 53%
Barometer: 30.05 inHg , 1017.6 hPa
Clouds: Partly cloudy
Visibility: 10 miles , 16 km
Cloud details: Partly cloudy 3500 ft
2018/05/24 22:53 KBFI 242253Z 00000KT 10SM SCT035 20/10 A3005 RMK AO2 SLP175 T02000100
KPLU - Puyallup/Thun, Washington, USA
Distance from station: SSW 27mi, 43km
Updated: Thu, 24-May-2018 3:55pm PDT
Clear
Clear
 Wind from calm
Wind: Calm
Temperature: 68°F , 20°C
Dew Point: 55°F , 13°C
Humidity: 64%
Barometer: 30.06 inHg , 1017.9 hPa
Clouds: Clear
Visibility: 10 miles , 16 km
2018/05/24 22:55 KPLU 242255Z AUTO 00000KT 10SM CLR 20/13 A3006 RMK AO2
 
KTIW - Tacoma, Washington, USA
Distance from station: WSW 29mi, 47km
Updated: Thu, 24-May-2018 3:53pm PDT
Clear
Clear
 Wind from varies
Wind: varies 3 mph , 6 km/h
Temperature: 66°F , 19°C
Dew Point: 52°F , 11°C
Humidity: 60%
Barometer: 30.06 inHg , 1017.9 hPa
Clouds: Clear
Visibility: 10 miles , 16 km
2018/05/24 22:53 KTIW 242253Z VRB03KT 10SM CLR 19/11 A3006 RMK AO2 SLP177 T01890111
KTCM - Tacoma/Mc Chord, Washington, USA
Distance from station: SW 31mi, 50km
Updated: Thu, 24-May-2018 3:58pm PDT
Few Clouds
Few Clouds
 Wind from W
Wind: W 8 mph , 13 km/h
Temperature: 68°F , 20°C
Dew Point: 57°F , 14°C
Humidity: 69%
Barometer: 30.06 inHg , 1017.9 hPa
Clouds: Few Clouds
Visibility: 10 miles , 16 km
Cloud details: Few Clouds 2800 ft
2018/05/24 22:58 KTCM 242258Z AUTO 27007KT 10SM FEW028 20/14 A3006 RMK AO2 SLP182 T01980142 $
 
KPAE - Everett, Washington, USA
Distance from station: NNW 35mi, 56km
Updated: Thu, 24-May-2018 3:53pm PDT
Clear
Clear
 Wind from WSW
Wind: WSW 8 mph , 13 km/h
Temperature: 64°F , 18°C
Dew Point: 52°F , 11°C
Humidity: 64%
Barometer: 30.07 inHg , 1018.3 hPa
Clouds: Clear
Visibility: 10 miles , 16 km
2018/05/24 22:53 KPAE 242253Z 25007KT 10SM CLR 18/11 A3007 RMK AO2 SLP181 T01780111
KPWT - Bremerton Ntnl, Washington, USA
Distance from station: W 35mi, 56km
Updated: Thu, 24-May-2018 3:56pm PDT
Few Clouds
Few Clouds
 Wind from varies
Wind: varies 5 mph , 7 km/h
Temperature: 66°F , 19°C
Dew Point: 54°F , 12°C
Humidity: 64%
Barometer: 30.06 inHg , 1017.9 hPa
Clouds: Few Clouds
Visibility: 10 miles , 16 km
Cloud details: Few Clouds 2600 ft
2018/05/24 22:56 KPWT 242256Z AUTO VRB04KT 10SM FEW026 19/12 A3006 RMK AO2 SLP195 T01940122
 
KGRF - Fort Lewis/Gray, Washington, USA
Distance from station: SW 37mi, 59km
Updated: Thu, 24-May-2018 3:03pm PDT
Partly cloudy
Partly cloudy
 Wind from W
Wind: W 9 mph , 15 km/h
Temperature: 66°F , 19°C
Dew Point: 57°F , 14°C
Humidity: 73%
Barometer: 30.06 inHg , 1017.9 hPa
Clouds: Partly cloudy
Visibility: 10 miles , 16 km
Cloud details: Partly cloudy 2800 ft
2018/05/24 22:03 KGRF 242203Z AUTO 26008KT 10SM SCT028 19/14 A3006 RMK AO2 SLP183 RVRNO $